Rye, New Hampshire
Current Conditions -  °F | °C
As of 3:58 AM on Saturday 25 Oct 2014 (Local Time) from KPSM Reporting Station
Broken Clouds Broken Clouds  
Wind Chill: 42°   Ceiling: 8500
Heat Index: 45°   Visibility: 10mi
Dew Point: 41°   Wind: 6mph
Humidity: 87%   Direction: 230°SW
Pressure: 29.72"   Gusts: NA
Location:  43.01°N, 70.77°W
Report Text: KPSM 250758Z 23005KT 10SM FEW070 BKN085 07/05 A2972 RMK AO2A SLP068 T00720051
Loading
Personal Weather Stations






























Interactive Weather Map New forecast layout! Learn more

10-Day Weather Forecast

Advertisements
Track Severe Weather on mobile